Pagrindinis puslapis
METAR-TAF:

METAR-TAF

Oro uostai :

Imperatriso oro uostas

Imperatrisas, Maranjanas, Brazilija

platuma: 05-32S, ilguma: 047-30W, Aukštis: 123 m

Dabartinis oras

Ataskaita buvo paskelbta 7 valandos ir 50 minutes, ne 20:00 UTC
Vėjas 3 kt iš Rytų/Pietryčių
Temperatūra 31°C
Drėgmė 63%
Slėgis 1009 hPa
Matomumas 10 km arba daugiau
nėra debesų žemiau 1500 m ir nėra kamuolinių lietaus debesų

METAR: SBIZ 282000Z 11003KT CAVOK 31/23 Q1009

Laikas: 00:50 (03:50 UTC)

Prognozė

Ataskaita buvo paskelbta 6 valandos ir 50 minutes, ne 21:00 UTC
Prognozė galioja nuo 29 metu 00 UTC su 29 metu 12 UTC
Vėjas 7 kt iš Pietryčių
Matomumas 10 km arba daugiau
Išsisklaidę debesys ne aukštis 1500 ft

TAF: SBIZ 282100Z 2900/2912 14007KT 9999 SCT015 TN25/2908Z TX30/2912Z RMK PGU

Orai ataskaitas ir orų prognozės (METAR, TAF).

turimą stotys yra geltonos ir raudonos taškus žemėlapyje.

Perkelti pele per norėdami pamatyti stoties vardą.

Tada spustelėkite, norėdami matyti oro stebėjimo ir prognozės.

Norėdami pakeisti žemėlapį: spustelėkite ant žalios mygtukų su juodo kryžiaus žemyn,; žalią mygtuką su brūkšneliu, jei norite nutolinti; arba žalių rodyklių gretimoms žemėlapius.


METAR-TAF: